Time;durP1;ratioP1;P1;durP2;ratioP2;P2;SDS_P1;SDS_P2;PMS_P1;PMS_P2;Temp;Humidity;BMP_temperature;BMP_pressure;BME280_temperature;BME280_humidity;BME280_pressure;Samples;Min_cycle;Max_cycle;Signal;HPM_P1;HPM_P2
2020/12/03 00:00:33;;;;;;;50.35;22.10;;;0.60;79.90;;;;;;5073229;28;20029;-67
2020/12/03 00:03:02;;;;;;;49.97;23.02;;;0.50;80.00;;;;;;5075505;28;20028;-66
2020/12/03 00:05:28;;;;;;;45.20;21.95;;;0.60;79.90;;;;;;5074529;28;20032;-67
2020/12/03 00:07:56;;;;;;;45.85;21.17;;;0.50;80.10;;;;;;5075458;28;20040;-67
2020/12/03 00:10:22;;;;;;;45.50;19.20;;;0.50;80.10;;;;;;5072446;28;20043;-67
2020/12/03 00:13:13;;;;;;;48.53;20.75;;;0.50;80.40;;;;;;5075684;28;20040;-66
2020/12/03 00:15:39;;;;;;;46.88;21.42;;;0.60;80.50;;;;;;5067351;28;20029;-67
2020/12/03 00:18:05;;;;;;;49.08;20.95;;;0.60;80.50;;;;;;5055569;28;20036;-67
2020/12/03 00:20:31;;;;;;;46.45;21.38;;;0.70;80.60;;;;;;5072477;28;20079;-67
2020/12/03 00:22:56;;;;;;;49.45;22.02;;;0.70;80.50;;;;;;5074012;28;20032;-66
2020/12/03 00:25:22;;;;;;;41.85;19.00;;;0.70;80.30;;;;;;5074934;28;20033;-66
2020/12/03 00:27:52;;;;;;;42.70;20.17;;;0.70;80.20;;;;;;5074254;28;20040;-66
2020/12/03 00:30:18;;;;;;;43.75;20.08;;;0.70;80.20;;;;;;5071939;28;20032;-67
2020/12/03 00:32:44;;;;;;;45.88;20.90;;;0.70;80.50;;;;;;5075340;28;20128;-66
2020/12/03 00:35:11;;;;;;;46.38;21.05;;;0.70;80.50;;;;;;5074327;28;20456;-67
2020/12/03 00:37:37;;;;;;;45.40;22.00;;;0.80;80.60;;;;;;5073959;28;20102;-67
2020/12/03 00:40:03;;;;;;;48.92;22.00;;;0.90;80.10;;;;;;5069312;28;20551;-67
2020/12/03 00:42:29;;;;;;;47.33;21.75;;;0.80;79.70;;;;;;5072983;28;20115;-66
2020/12/03 00:44:54;;;;;;;45.25;19.85;;;0.70;79.70;;;;;;5075006;28;20520;-67
2020/12/03 00:47:20;;;;;;;48.85;22.05;;;0.70;79.70;;;;;;5071304;28;20469;-67
2020/12/03 00:49:45;;;;;;;46.05;20.90;;;0.60;79.60;;;;;;5072012;28;20024;-67
2020/12/03 00:52:11;;;;;;;45.92;21.20;;;0.60;79.90;;;;;;5053385;28;20039;-66
2020/12/03 00:54:36;;;;;;;46.60;19.55;;;0.60;80.10;;;;;;5072313;28;20373;-66
2020/12/03 00:57:02;;;;;;;49.35;21.65;;;0.60;80.30;;;;;;5072504;28;20457;-67
2020/12/03 00:59:28;;;;;;;49.35;23.30;;;0.60;80.30;;;;;;5072402;28;20039;-66
2020/12/03 01:01:53;;;;;;;47.60;21.80;;;0.70;80.50;;;;;;5055202;28;20056;-67
2020/12/03 01:04:19;;;;;;;53.38;22.42;;;0.70;80.20;;;;;;5073441;28;20071;-67
2020/12/03 01:06:44;;;;;;;53.33;22.77;;;0.70;80.20;;;;;;5073372;28;20085;-67
2020/12/03 01:09:13;;;;;;;48.13;21.98;;;0.70;80.20;;;;;;5055591;28;20039;-67
2020/12/03 01:11:39;;;;;;;49.33;20.70;;;0.70;80.30;;;;;;5074585;28;20032;-67
2020/12/03 01:14:05;;;;;;;44.80;19.25;;;0.70;80.30;;;;;;5071296;28;20044;-67
2020/12/03 01:16:31;;;;;;;46.10;20.60;;;0.70;80.50;;;;;;5054411;28;20031;-67
2020/12/03 01:18:56;;;;;;;46.53;21.08;;;0.80;80.30;;;;;;5073209;28;20086;-67
2020/12/03 01:21:22;;;;;;;47.65;21.63;;;0.80;80.40;;;;;;5072696;28;20428;-67
2020/12/03 01:23:48;;;;;;;48.97;21.00;;;0.80;79.90;;;;;;5069922;28;20473;-66
2020/12/03 01:26:16;;;;;;;50.35;22.88;;;0.70;79.70;;;;;;5072348;28;20024;-67
2020/12/03 01:28:42;;;;;;;46.38;21.48;;;0.70;80.00;;;;;;5054513;28;20033;-67
2020/12/03 01:31:08;;;;;;;48.20;21.63;;;0.70;79.90;;;;;;5071507;28;20162;-67
2020/12/03 01:33:34;;;;;;;47.65;21.25;;;0.70;80.10;;;;;;5072832;28;20052;-66
2020/12/03 01:35:59;;;;;;;47.95;21.00;;;0.70;80.30;;;;;;5070972;28;20043;-67
2020/12/03 01:38:25;;;;;;;47.83;20.88;;;0.70;80.50;;;;;;5073799;28;20035;-67
2020/12/03 01:40:51;;;;;;;44.30;19.98;;;0.80;80.60;;;;;;5070185;28;20055;-66
2020/12/03 01:43:17;;;;;;;42.90;19.70;;;0.80;80.30;;;;;;5055851;28;20027;-67
2020/12/03 01:45:54;;;;;;;40.35;19.25;;;0.80;80.50;;;;;;5073764;28;20024;-66
2020/12/03 01:48:29;;;;;;;43.83;19.40;;;0.80;80.60;;;;;;5067144;28;20489;-67
2020/12/03 01:50:56;;;;;;;35.45;15.95;;;0.80;80.80;;;;;;5069930;28;20028;-66
2020/12/03 01:53:22;;;;;;;40.22;17.85;;;0.80;80.60;;;;;;5073168;28;20028;-66
2020/12/03 01:55:48;;;;;;;34.92;16.50;;;0.80;80.60;;;;;;5071329;28;20445;-67
2020/12/03 01:58:34;;;;;;;45.28;18.73;;;0.80;80.80;;;;;;5071015;28;20037;-67
2020/12/03 02:01:02;;;;;;;37.88;17.92;;;0.90;80.70;;;;;;5059536;28;20021;-66
2020/12/03 02:03:27;;;;;;;42.55;18.30;;;0.90;80.60;;;;;;5054529;28;20383;-67
2020/12/03 02:05:53;;;;;;;39.95;17.90;;;1.00;80.60;;;;;;5071970;28;20032;-67
2020/12/03 02:08:19;;;;;;;40.92;18.40;;;1.00;80.60;;;;;;5073102;28;20032;-67
2020/12/03 02:10:44;;;;;;;44.03;19.45;;;1.10;80.60;;;;;;5070684;28;20036;-66
2020/12/03 02:13:10;;;;;;;41.75;18.63;;;1.10;80.30;;;;;;5073056;28;20071;-66
2020/12/03 02:15:36;;;;;;;42.78;18.73;;;1.10;80.10;;;;;;5069176;28;20040;-66
2020/12/03 02:18:04;;;;;;;45.47;19.58;;;1.00;80.50;;;;;;5071639;28;20027;-66
2020/12/03 02:20:30;;;;;;;45.80;19.20;;;1.00;80.00;;;;;;5070123;28;20021;-66
2020/12/03 02:22:55;;;;;;;47.75;20.70;;;0.90;80.00;;;;;;5071599;28;20128;-66
2020/12/03 02:25:21;;;;;;;46.05;20.73;;;0.90;79.90;;;;;;5070988;28;20028;-66
2020/12/03 02:27:46;;;;;;;41.90;17.65;;;0.80;80.00;;;;;;5069648;28;20094;-66
2020/12/03 02:30:13;;;;;;;46.58;20.42;;;0.80;80.30;;;;;;5071106;28;20612;-66
2020/12/03 02:32:40;;;;;;;45.20;20.50;;;0.70;80.60;;;;;;5071080;28;20051;-66
2020/12/03 02:35:08;;;;;;;50.17;20.90;;;0.70;80.50;;;;;;5073077;28;20115;-66
2020/12/03 02:37:34;;;;;;;49.20;21.70;;;0.60;80.70;;;;;;5070220;28;20108;-65
2020/12/03 02:40:01;;;;;;;52.80;23.55;;;0.60;80.70;;;;;;5071006;28;20520;-66
2020/12/03 02:42:26;;;;;;;52.35;22.15;;;0.60;80.80;;;;;;5070896;28;20050;-66
2020/12/03 02:44:52;;;;;;;46.65;21.85;;;0.60;80.60;;;;;;5070424;28;20536;-66
2020/12/03 02:47:21;;;;;;;55.53;22.88;;;0.60;80.80;;;;;;5071577;28;20059;-66
2020/12/03 02:49:48;;;;;;;56.97;24.42;;;0.50;80.60;;;;;;5069105;28;20150;-66
2020/12/03 02:52:17;;;;;;;51.10;22.75;;;0.50;80.70;;;;;;5051444;28;20806;-67
2020/12/03 02:54:43;;;;;;;55.35;21.70;;;0.50;80.60;;;;;;5066801;28;20035;-66
2020/12/03 02:57:10;;;;;;;54.63;22.30;;;0.50;80.70;;;;;;5071398;28;20029;-66
2020/12/03 02:59:36;;;;;;;54.22;22.58;;;0.50;80.90;;;;;;5070605;28;20095;-66
2020/12/03 03:02:02;;;;;;;52.28;22.88;;;0.50;81.10;;;;;;5076825;28;20094;-66
2020/12/03 03:04:28;;;;;;;52.13;22.67;;;0.40;81.10;;;;;;5072605;28;20477;-66
2020/12/03 03:06:54;;;;;;;54.45;22.92;;;0.50;81.10;;;;;;5070554;28;20033;-66
2020/12/03 03:09:21;;;;;;;56.83;23.88;;;0.50;81.00;;;;;;5070960;28;20029;-66
2020/12/03 03:11:46;;;;;;;56.17;24.02;;;0.40;81.10;;;;;;5071375;28;20048;-66
2020/12/03 03:14:12;;;;;;;51.13;22.65;;;0.50;81.00;;;;;;5072442;28;20094;-66
2020/12/03 03:16:38;;;;;;;55.30;22.98;;;0.50;81.00;;;;;;5063068;28;20162;-67
2020/12/03 03:19:04;;;;;;;55.47;21.13;;;0.50;81.20;;;;;;5070630;28;20082;-66
2020/12/03 03:21:30;;;;;;;54.65;23.38;;;0.50;81.20;;;;;;5069238;28;20024;-66
2020/12/03 03:23:56;;;;;;;54.67;22.92;;;0.50;81.20;;;;;;5053151;28;20033;-66
2020/12/03 03:26:21;;;;;;;52.60;22.27;;;0.50;81.10;;;;;;5069163;28;20116;-66
2020/12/03 03:28:47;;;;;;;57.05;21.50;;;0.50;81.20;;;;;;5069765;28;20029;-67
2020/12/03 03:31:13;;;;;;;53.78;22.77;;;0.60;81.20;;;;;;5068498;28;20037;-66
2020/12/03 03:33:38;;;;;;;48.63;19.92;;;0.60;81.10;;;;;;5070865;28;20032;-66
2020/12/03 03:36:04;;;;;;;50.00;21.23;;;0.60;81.10;;;;;;5070195;28;20041;-66
2020/12/03 03:38:30;;;;;;;46.95;19.92;;;0.60;81.20;;;;;;5069192;28;20449;-66
2020/12/03 03:40:56;;;;;;;50.83;21.27;;;0.60;81.00;;;;;;5063434;28;20031;-66
2020/12/03 03:43:21;;;;;;;53.22;22.23;;;0.60;81.10;;;;;;5069647;28;20096;-66
2020/12/03 03:45:47;;;;;;;57.65;21.90;;;0.60;81.20;;;;;;5070819;28;20564;-66
2020/12/03 03:48:12;;;;;;;56.80;22.63;;;0.60;81.30;;;;;;5070740;28;20033;-66
2020/12/03 03:50:38;;;;;;;59.47;23.08;;;0.50;81.30;;;;;;5075192;28;20063;-66
2020/12/03 03:53:04;;;;;;;63.15;23.73;;;0.60;81.30;;;;;;5070209;28;20033;-66
2020/12/03 03:55:29;;;;;;;57.47;23.50;;;0.60;81.40;;;;;;5069608;28;20029;-66
2020/12/03 03:57:55;;;;;;;57.30;23.52;;;0.60;81.40;;;;;;5070735;28;20055;-66
2020/12/03 04:00:21;;;;;;;54.30;22.58;;;0.60;81.40;;;;;;5072037;28;20024;-66
2020/12/03 04:02:48;;;;;;;50.83;22.13;;;0.60;81.30;;;;;;5069984;28;20118;-66
2020/12/03 04:05:16;;;;;;;55.00;22.10;;;0.60;81.30;;;;;;5071038;28;20423;-66
2020/12/03 04:07:42;;;;;;;59.63;23.80;;;0.60;81.60;;;;;;5053737;28;20127;-66
2020/12/03 04:10:08;;;;;;;55.83;22.20;;;0.60;81.70;;;;;;5069872;28;20091;-66
2020/12/03 04:12:34;;;;;;;53.88;21.77;;;0.60;81.50;;;;;;5069511;28;20544;-66
2020/12/03 04:15:00;;;;;;;56.47;23.52;;;0.70;81.60;;;;;;5070905;28;20081;-66
2020/12/03 04:17:29;;;;;;;55.00;23.30;;;0.70;81.50;;;;;;5068904;28;20052;-66
2020/12/03 04:19:56;;;;;;;53.80;21.30;;;0.70;81.40;;;;;;5069794;28;20025;-66
2020/12/03 04:22:22;;;;;;;55.70;21.75;;;0.80;81.50;;;;;;5069532;28;20024;-66
2020/12/03 04:24:47;;;;;;;50.13;22.33;;;0.80;81.50;;;;;;5069589;28;20032;-69
2020/12/03 04:27:13;;;;;;;53.75;22.83;;;0.80;81.60;;;;;;5071582;28;20093;-66
2020/12/03 04:29:39;;;;;;;59.17;21.35;;;0.80;81.60;;;;;;5071611;28;20063;-66
2020/12/03 04:32:04;;;;;;;54.67;21.70;;;0.90;81.60;;;;;;5056651;28;20032;-66
2020/12/03 04:34:30;;;;;;;52.42;21.88;;;0.90;81.50;;;;;;5073647;28;20033;-66
2020/12/03 04:36:56;;;;;;;54.30;23.05;;;0.90;81.50;;;;;;5075297;28;20043;-66
2020/12/03 04:39:21;;;;;;;56.08;22.92;;;0.90;81.50;;;;;;5073133;28;20496;-66
2020/12/03 04:41:47;;;;;;;53.28;21.75;;;1.00;81.50;;;;;;5074369;28;20029;-66
2020/12/03 04:44:23;;;;;;;57.20;23.85;;;1.00;81.40;;;;;;5074469;28;20068;-66
2020/12/03 04:47:14;;;;;;;55.03;22.15;;;0.90;81.30;;;;;;5073801;28;20040;-66
2020/12/03 04:49:56;;;;;;;54.40;22.70;;;0.90;81.20;;;;;;5071939;28;20404;-66
2020/12/03 04:52:56;;;;;;;50.22;22.00;;;0.90;81.40;;;;;;5061776;28;20107;-66
2020/12/03 04:55:24;;;;;;;53.00;22.33;;;0.90;81.60;;;;;;5054950;28;20029;-66
2020/12/03 04:58:15;;;;;;;52.67;20.92;;;1.00;81.50;;;;;;5073591;28;20033;-66
2020/12/03 05:00:50;;;;;;;52.70;22.52;;;1.00;81.50;;;;;;5074349;28;20031;-66
2020/12/03 05:03:49;;;;;;;53.35;22.25;;;1.00;81.20;;;;;;5073164;28;20105;-66
2020/12/03 05:06:38;;;;;;;55.33;21.88;;;1.00;81.20;;;;;;5072954;28;20017;-66
2020/12/03 05:09:10;;;;;;;60.25;22.98;;;0.90;81.20;;;;;;5068943;28;20393;-65
2020/12/03 05:11:46;;;;;;;55.80;22.38;;;0.90;81.10;;;;;;5065729;28;20021;-65
2020/12/03 05:14:22;;;;;;;55.03;23.30;;;0.80;81.20;;;;;;5073866;28;20075;-65
2020/12/03 05:17:15;;;;;;;56.38;22.65;;;0.80;81.50;;;;;;5058718;28;20376;-66
2020/12/03 05:19:54;;;;;;;60.42;24.20;;;0.80;81.60;;;;;;5053594;28;20051;-65
2020/12/03 05:22:21;;;;;;;58.28;22.95;;;0.80;81.60;;;;;;5069405;28;20056;-65
2020/12/03 05:24:48;;;;;;;55.67;23.30;;;0.80;81.40;;;;;;5058899;28;20050;-65
2020/12/03 05:27:26;;;;;;;58.25;21.63;;;0.70;81.30;;;;;;5072261;28;20043;-66
2020/12/03 05:29:53;;;;;;;55.05;22.38;;;0.70;81.60;;;;;;5072492;28;20051;-66
2020/12/03 05:32:19;;;;;;;59.63;22.80;;;0.60;81.90;;;;;;5064007;28;20094;-66
2020/12/03 05:34:44;;;;;;;53.33;23.27;;;0.70;82.10;;;;;;5056750;28;20020;-66
2020/12/03 05:37:15;;;;;;;55.50;21.15;;;0.70;82.20;;;;;;5071726;28;20036;-66
2020/12/03 05:39:42;;;;;;;59.58;23.55;;;0.70;82.00;;;;;;5055490;28;20032;-66
2020/12/03 05:42:11;;;;;;;59.45;22.67;;;0.70;82.10;;;;;;5074066;28;20023;-66
2020/12/03 05:44:37;;;;;;;58.80;24.10;;;0.70;82.10;;;;;;5085073;28;20442;-66
2020/12/03 05:47:23;;;;;;;68.63;27.90;;;0.70;82.10;;;;;;5079282;28;20032;-66
2020/12/03 05:49:52;;;;;;;54.33;22.58;;;0.70;82.10;;;;;;5073719;28;20016;-66
2020/12/03 05:52:21;;;;;;;55.22;22.85;;;0.70;81.80;;;;;;5073128;28;20123;-65
2020/12/03 05:55:06;;;;;;;59.72;24.05;;;0.70;81.80;;;;;;5074647;28;20060;-66
2020/12/03 05:57:36;;;;;;;63.28;25.63;;;0.70;82.10;;;;;;5071949;28;20027;-66
2020/12/03 06:00:13;;;;;;;66.10;24.25;;;0.70;82.00;;;;;;5069879;28;20025;-65
2020/12/03 06:02:54;;;;;;;58.65;23.40;;;0.70;82.10;;;;;;5073170;28;20397;-66
2020/12/03 06:05:32;;;;;;;52.83;21.58;;;0.70;82.30;;;;;;5073984;28;20025;-66
2020/12/03 06:08:24;;;;;;;57.10;24.02;;;0.80;82.20;;;;;;5073210;28;20139;-66
2020/12/03 06:11:10;;;;;;;67.80;27.45;;;0.80;82.20;;;;;;5073027;28;20493;-66
2020/12/03 06:13:42;;;;;;;58.72;24.13;;;0.80;82.10;;;;;;5053408;28;20382;-66
2020/12/03 06:16:44;;;;;;;61.42;24.63;;;0.80;82.10;;;;;;5057058;28;20044;-66
2020/12/03 06:19:37;;;;;;;54.83;22.38;;;0.90;82.10;;;;;;5073287;28;20028;-66
2020/12/03 06:22:52;;;;;;;57.60;23.80;;;0.90;81.90;;;;;;5073277;28;20025;-66
2020/12/03 06:25:29;;;;;;;55.83;23.33;;;0.90;81.90;;;;;;4989488;28;20038;-66
2020/12/03 06:28:27;;;;;;;61.65;24.40;;;0.90;82.00;;;;;;4992203;28;20537;-65
2020/12/03 06:31:02;;;;;;;60.53;23.63;;;1.00;82.00;;;;;;5049463;28;20040;-66
2020/12/03 06:33:48;;;;;;;61.05;23.92;;;0.90;81.80;;;;;;5073442;28;20520;-66
2020/12/03 06:36:14;;;;;;;61.95;24.08;;;0.90;81.90;;;;;;5073398;28;20025;-66
2020/12/03 06:38:59;;;;;;;56.40;23.15;;;1.00;82.00;;;;;;5072591;28;20028;-66
2020/12/03 06:41:43;;;;;;;55.80;22.48;;;1.00;81.90;;;;;;5072747;28;20027;-66
2020/12/03 06:44:33;;;;;;;55.80;22.73;;;1.00;81.90;;;;;;5073139;28;20075;-65
2020/12/03 06:47:49;;;;;;;54.85;22.30;;;1.00;81.90;;;;;;5071389;28;20044;-66
2020/12/03 06:50:52;;;;;;;65.95;23.90;;;1.00;82.00;;;;;;5027985;28;20111;-66
2020/12/03 06:53:38;;;;;;;54.75;22.80;;;1.10;82.00;;;;;;5014300;28;20026;-66
2020/12/03 06:56:51;;;;;;;54.67;22.77;;;1.10;81.80;;;;;;5049405;28;20045;-66
2020/12/03 06:59:35;;;;;;;;;;;1.10;81.90;;;;;;5005984;28;20033;-66
2020/12/03 07:02:12;;;;;;;50.05;20.80;;;1.10;81.80;;;;;;5052711;28;19999;-66
2020/12/03 07:05:14;;;;;;;52.35;22.02;;;1.10;81.70;;;;;;5061959;28;20025;-66
2020/12/03 07:08:17;;;;;;;54.70;21.83;;;1.20;81.90;;;;;;5070929;28;20105;-66
2020/12/03 07:10:58;;;;;;;49.67;20.98;;;1.20;82.00;;;;;;5084238;28;20065;-66
2020/12/03 07:13:50;;;;;;;59.97;23.60;;;1.20;81.90;;;;;;5071962;28;20457;-66
2020/12/03 07:16:47;;;;;;;59.00;22.80;;;1.30;81.60;;;;;;5072955;28;20389;-66
2020/12/03 07:19:39;;;;;;;54.70;22.77;;;1.30;81.90;;;;;;5071764;28;20025;-66
2020/12/03 07:22:08;;;;;;;53.35;22.02;;;1.30;81.80;;;;;;5072679;28;20078;-66
2020/12/03 07:24:37;;;;;;;51.72;20.58;;;1.20;81.70;;;;;;5071928;28;20469;-66
2020/12/03 07:27:09;;;;;;;48.67;20.95;;;1.20;81.80;;;;;;5063884;28;20033;-66
2020/12/03 07:29:41;;;;;;;55.08;20.75;;;1.20;82.00;;;;;;5063493;28;20025;-66
2020/12/03 07:32:37;;;;;;;51.42;20.33;;;1.20;82.00;;;;;;5072331;28;20032;-66
2020/12/03 07:35:44;;;;;;;50.45;20.10;;;1.20;82.10;;;;;;5051892;28;20260;-66
2020/12/03 07:38:16;;;;;;;56.78;22.60;;;1.10;82.00;;;;;;5052233;28;20486;-66
2020/12/03 07:40:42;;;;;;;51.25;20.42;;;1.10;82.00;;;;;;5062423;28;20029;-65
2020/12/03 07:43:19;;;;;;;48.97;20.98;;;1.10;81.90;;;;;;5071906;28;20162;-65
2020/12/03 07:45:49;;;;;;;51.30;20.55;;;1.10;82.00;;;;;;5072045;28;20485;-66
2020/12/03 07:48:17;;;;;;;46.67;19.38;;;1.10;82.00;;;;;;5072345;28;20024;-66
2020/12/03 07:51:03;;;;;;;49.20;20.92;;;1.10;82.00;;;;;;5071903;28;20039;-66
2020/12/03 07:53:30;;;;;;;50.88;19.02;;;1.10;82.10;;;;;;5071466;28;20024;-66
2020/12/03 07:55:56;;;;;;;49.38;21.48;;;1.10;82.20;;;;;;5072371;28;20078;-66
2020/12/03 07:58:37;;;;;;;51.60;20.30;;;1.10;82.30;;;;;;5072148;28;20725;-65
2020/12/03 08:01:04;;;;;;;52.72;21.02;;;1.10;82.30;;;;;;5071045;28;20024;-65
2020/12/03 08:03:49;;;;;;;53.97;22.85;;;1.10;82.20;;;;;;5073981;28;20028;-65
2020/12/03 08:06:18;;;;;;;56.17;22.52;;;1.10;82.40;;;;;;5075790;28;20017;-65
2020/12/03 08:09:03;;;;;;;72.72;33.22;;;1.20;82.30;;;;;;5075702;28;20032;-66
2020/12/03 08:11:49;;;;;;;64.20;30.80;;;1.20;82.40;;;;;;5069025;28;20017;-65
2020/12/03 08:14:42;;;;;;;58.30;30.25;;;1.20;82.30;;;;;;5056594;28;20029;-65
2020/12/03 08:17:17;;;;;;;45.72;19.27;;;1.30;82.30;;;;;;5069005;28;20420;-66
2020/12/03 08:20:07;;;;;;;50.70;21.20;;;1.30;82.20;;;;;;5075499;28;20032;-65
2020/12/03 08:22:43;;;;;;;39.45;17.25;;;1.30;82.10;;;;;;5069433;28;20037;-66
2020/12/03 08:25:23;;;;;;;44.10;17.58;;;1.30;81.90;;;;;;5073204;28;20027;-66
2020/12/03 08:27:51;;;;;;;43.35;18.95;;;1.30;82.00;;;;;;5064407;28;20081;-65
2020/12/03 08:33:08;;;;;;;42.20;17.23;;;1.40;82.20;;;;;;5073325;28;20508;-65
2020/12/03 08:35:33;;;;;;;44.78;18.13;;;1.40;82.20;;;;;;5075209;28;20032;-65
2020/12/03 08:38:01;;;;;;;42.35;18.05;;;1.40;82.20;;;;;;5074826;28;20773;-65
2020/12/03 08:40:29;;;;;;;45.60;19.75;;;1.50;82.20;;;;;;5074537;28;20032;-65
2020/12/03 08:42:56;;;;;;;43.03;18.65;;;1.60;82.00;;;;;;5066642;28;20036;-67
2020/12/03 08:45:21;;;;;;;42.90;18.17;;;1.60;81.90;;;;;;5075195;28;20101;-65
2020/12/03 08:47:52;;;;;;;41.40;18.13;;;1.70;81.80;;;;;;5074874;28;20059;-67
2020/12/03 08:50:18;;;;;;;39.78;17.00;;;1.70;81.70;;;;;;5067368;28;20546;-65
2020/12/03 08:52:45;;;;;;;36.70;16.38;;;1.70;81.60;;;;;;5055487;28;20068;-65
2020/12/03 08:55:11;;;;;;;36.38;16.52;;;1.80;81.70;;;;;;5061862;28;20169;-65
2020/12/03 08:57:39;;;;;;;40.35;17.23;;;1.80;81.60;;;;;;5075483;28;20107;-65
2020/12/03 09:00:17;;;;;;;40.95;18.17;;;1.80;81.30;;;;;;5073893;28;20029;-66
2020/12/03 09:02:43;;;;;;;42.90;18.20;;;1.80;81.40;;;;;;5057036;28;20029;-65
2020/12/03 09:05:09;;;;;;;42.65;17.80;;;1.80;81.10;;;;;;5070211;28;20055;-65
2020/12/03 09:07:42;;;;;;;37.58;16.75;;;1.80;81.10;;;;;;5074814;28;20025;-65
2020/12/03 09:10:08;;;;;;;;;;;1.80;81.30;;;;;;5074426;28;20031;-65
2020/12/03 09:12:36;;;;;;;33.92;15.80;;;1.80;81.30;;;;;;5073889;28;20004;-65
2020/12/03 09:15:05;;;;;;;37.67;17.63;;;1.80;81.20;;;;;;5073793;28;20025;-65
2020/12/03 09:17:35;;;;;;;34.60;15.82;;;1.80;81.30;;;;;;5074543;28;20021;-66
2020/12/03 09:20:06;;;;;;;37.08;16.00;;;1.90;81.60;;;;;;5074467;28;20021;-66
2020/12/03 09:22:34;;;;;;;37.80;16.23;;;1.90;81.20;;;;;;5074738;28;20031;-65
2020/12/03 09:25:02;;;;;;;36.65;16.83;;;1.90;81.20;;;;;;5074594;28;20056;-65
2020/12/03 09:27:29;;;;;;;30.08;13.75;;;2.00;81.20;;;;;;5073815;28;20102;-65
2020/12/03 09:29:54;;;;;;;29.23;14.18;;;2.00;81.40;;;;;;5075589;28;20024;-67
2020/12/03 09:32:23;;;;;;;31.63;14.40;;;2.00;80.80;;;;;;5079583;28;20381;-65
2020/12/03 09:34:54;;;;;;;30.23;14.45;;;2.00;81.00;;;;;;5072303;28;20032;-65
2020/12/03 09:37:20;;;;;;;29.85;13.65;;;2.00;81.00;;;;;;5073708;28;20377;-65
2020/12/03 09:39:46;;;;;;;30.95;12.95;;;2.00;80.80;;;;;;5073282;28;20031;-65
2020/12/03 09:42:14;;;;;;;29.42;12.63;;;2.10;80.80;;;;;;5056140;28;20089;-65
2020/12/03 09:44:42;;;;;;;25.48;12.10;;;2.10;80.90;;;;;;5073969;28;20019;-65
2020/12/03 09:47:15;;;;;;;24.05;11.15;;;2.20;80.80;;;;;;5073382;28;20040;-66
2020/12/03 09:49:42;;;;;;;17.50;10.07;;;2.20;80.60;;;;;;5072480;28;20017;-65
2020/12/03 09:52:11;;;;;;;20.85;10.73;;;2.30;80.40;;;;;;5073875;28;20507;-66
2020/12/03 09:54:40;;;;;;;25.50;11.65;;;2.30;80.40;;;;;;5073339;28;20033;-65
2020/12/03 09:57:09;;;;;;;23.77;10.98;;;2.30;80.10;;;;;;5073828;28;20542;-65
2020/12/03 09:59:37;;;;;;;24.45;12.30;;;2.30;80.10;;;;;;5063967;28;20036;-65
2020/12/03 10:02:24;;;;;;;25.70;12.68;;;2.30;80.00;;;;;;5073845;28;20477;-65
2020/12/03 10:05:08;;;;;;;28.20;13.25;;;2.30;79.80;;;;;;5072957;28;20498;-65
2020/12/03 10:07:48;;;;;;;28.05;14.05;;;2.20;79.70;;;;;;5057069;28;20024;-65
2020/12/03 10:10:39;;;;;;;27.67;12.88;;;2.20;79.90;;;;;;5072656;28;20028;-65
2020/12/03 10:13:30;;;;;;;30.77;14.85;;;2.10;80.10;;;;;;5071135;28;20032;-65
2020/12/03 10:16:03;;;;;;;35.20;14.25;;;2.10;80.20;;;;;;5065026;28;20041;-66
2020/12/03 10:18:50;;;;;;;37.55;18.25;;;2.10;80.30;;;;;;5064652;28;20025;-65
2020/12/03 10:21:24;;;;;;;31.38;15.23;;;2.10;80.20;;;;;;5055717;28;20480;-65
2020/12/03 10:24:12;;;;;;;31.05;14.25;;;2.20;80.20;;;;;;5072640;28;20028;-64
2020/12/03 10:26:40;;;;;;;29.27;14.63;;;2.20;80.10;;;;;;5072833;28;20108;-65
2020/12/03 10:29:24;;;;;;;30.25;15.13;;;2.20;80.10;;;;;;5066693;28;20103;-65
2020/12/03 10:31:51;;;;;;;29.35;14.93;;;2.30;80.20;;;;;;5071522;28;20029;-65
2020/12/03 10:34:17;;;;;;;31.98;14.45;;;2.30;80.10;;;;;;5051892;28;20024;-65
2020/12/03 10:37:27;;;;;;;31.27;14.25;;;2.40;80.10;;;;;;5053274;28;20029;-65
2020/12/03 10:39:59;;;;;;;25.35;13.13;;;2.50;80.50;;;;;;5062037;28;20059;-65
2020/12/03 10:42:31;;;;;;;25.70;13.98;;;2.50;79.70;;;;;;5073297;28;20059;-66
2020/12/03 10:45:11;;;;;;;28.25;14.57;;;2.60;79.70;;;;;;5071710;28;20033;-65
2020/12/03 10:47:47;;;;;;;25.95;14.20;;;2.60;79.70;;;;;;5072944;28;20056;-65
2020/12/03 10:50:15;;;;;;;26.73;14.52;;;2.60;79.30;;;;;;5072712;28;20028;-65
2020/12/03 10:52:43;;;;;;;29.13;14.80;;;2.60;79.40;;;;;;5072695;28;20040;-65
2020/12/03 10:55:10;;;;;;;27.27;13.93;;;2.60;79.50;;;;;;5072665;28;20028;-65
2020/12/03 10:57:39;;;;;;;26.05;12.60;;;2.60;79.10;;;;;;5071823;28;20428;-65
2020/12/03 11:00:08;;;;;;;24.33;13.50;;;2.60;79.40;;;;;;5072517;28;20021;-66
2020/12/03 11:02:45;;;;;;;29.85;13.35;;;2.60;79.90;;;;;;5072149;28;20029;-65
2020/12/03 11:05:12;;;;;;;24.67;12.88;;;2.60;79.20;;;;;;5054638;28;20032;-65
2020/12/03 11:07:38;;;;;;;27.13;13.55;;;2.60;79.20;;;;;;5071980;28;20044;-65
2020/12/03 11:10:05;;;;;;;28.25;14.43;;;2.60;79.50;;;;;;5071986;28;20085;-65
2020/12/03 11:12:31;;;;;;;28.73;14.45;;;2.60;79.30;;;;;;5072072;28;20090;-65
2020/12/03 11:15:06;;;;;;;26.27;13.30;;;2.60;79.20;;;;;;5062446;28;20028;-65
2020/12/03 11:17:31;;;;;;;25.08;13.27;;;2.60;79.00;;;;;;5072082;28;20037;-65
2020/12/03 11:19:59;;;;;;;26.67;13.50;;;2.60;79.20;;;;;;5053599;28;20036;-65
2020/12/03 11:22:57;;;;;;;25.42;13.57;;;2.60;79.20;;;;;;5071968;28;20021;-65
2020/12/03 11:25:27;;;;;;;25.65;12.18;;;2.70;79.20;;;;;;5072783;28;20017;-65
2020/12/03 11:27:55;;;;;;;24.20;12.23;;;2.70;79.00;;;;;;5072307;28;20031;-65
2020/12/03 11:30:23;;;;;;;24.40;12.20;;;2.70;79.20;;;;;;5071717;28;20041;-65
2020/12/03 11:32:55;;;;;;;23.90;12.48;;;2.80;79.20;;;;;;5071992;28;20031;-65
2020/12/03 11:35:30;;;;;;;21.38;9.48;;;2.80;79.10;;;;;;5072624;28;20111;-65
2020/12/03 11:37:57;;;;;;;24.55;11.32;;;2.80;79.40;;;;;;5070772;28;20119;-65
2020/12/03 11:40:31;;;;;;;24.88;12.05;;;2.90;78.50;;;;;;5053787;28;20396;-65
2020/12/03 11:43:14;;;;;;;21.13;10.52;;;2.90;79.00;;;;;;5054154;28;20420;-65
2020/12/03 11:48:43;;;;;;;20.33;11.27;;;2.90;78.40;;;;;;5010334;28;20241;-65
2020/12/03 11:51:32;;;;;;;20.33;10.93;;;2.90;78.50;;;;;;5044574;28;20029;-65
2020/12/03 11:54:03;;;;;;;19.42;9.55;;;2.90;78.50;;;;;;5072127;28;20178;-65
2020/12/03 11:56:30;;;;;;;20.90;10.20;;;2.90;78.50;;;;;;5071532;28;20016;-65
2020/12/03 11:59:14;;;;;;;21.10;11.13;;;2.90;78.30;;;;;;5072464;28;20029;-64
2020/12/03 12:01:50;;;;;;;22.55;11.52;;;2.90;78.20;;;;;;5067592;28;20108;-65
2020/12/03 12:04:17;;;;;;;18.35;10.77;;;2.90;78.30;;;;;;5051538;28;20473;-64
2020/12/03 12:07:04;;;;;;;19.42;10.07;;;3.00;78.40;;;;;;5034334;28;20033;-64
2020/12/03 12:09:47;;;;;;;20.30;11.15;;;3.00;78.30;;;;;;5040450;28;20220;-65
2020/12/03 12:12:15;;;;;;;22.02;12.10;;;3.00;78.10;;;;;;5071960;28;20029;-65
2020/12/03 12:14:41;;;;;;;23.33;12.85;;;3.00;78.30;;;;;;5068658;28;20056;-65
2020/12/03 12:17:07;;;;;;;20.38;10.75;;;3.00;78.00;;;;;;5071394;28;20106;-65
2020/12/03 12:19:34;;;;;;;18.50;9.93;;;3.10;78.20;;;;;;5070917;28;20035;-65
2020/12/03 12:21:59;;;;;;;19.85;10.00;;;3.10;78.20;;;;;;5072121;28;20025;-65
2020/12/03 12:24:26;;;;;;;17.45;10.45;;;3.20;78.30;;;;;;5071306;28;20035;-66
2020/12/03 12:26:51;;;;;;;20.98;10.07;;;3.20;78.00;;;;;;5071920;28;20020;-65
2020/12/03 12:29:17;;;;;;;18.13;9.60;;;3.30;77.90;;;;;;5071258;28;20036;-65
2020/12/03 12:31:42;;;;;;;18.85;10.20;;;3.30;77.70;;;;;;5071085;28;20040;-65
2020/12/03 12:34:08;;;;;;;16.67;9.20;;;3.30;77.60;;;;;;5071221;28;20108;-65
2020/12/03 12:36:33;;;;;;;21.77;9.32;;;3.30;77.50;;;;;;5071074;28;20089;-65
2020/12/03 12:38:59;;;;;;;19.88;10.05;;;3.30;77.50;;;;;;5071629;28;20028;-65
2020/12/03 12:41:25;;;;;;;14.65;8.45;;;3.30;77.20;;;;;;5070700;28;20017;-64
2020/12/03 12:43:50;;;;;;;16.15;8.38;;;3.30;77.50;;;;;;5058846;28;20036;-64
2020/12/03 12:46:21;;;;;;;14.55;7.47;;;3.40;77.50;;;;;;5068816;28;20046;-65
2020/12/03 12:48:47;;;;;;;12.25;7.22;;;3.40;77.20;;;;;;5071924;28;20021;-65
2020/12/03 12:51:12;;;;;;;13.93;7.55;;;3.30;76.90;;;;;;5073350;28;20828;-64
2020/12/03 12:53:38;;;;;;;12.77;7.40;;;3.30;77.10;;;;;;5074308;28;20037;-64
2020/12/03 12:56:03;;;;;;;10.13;6.20;;;3.30;77.10;;;;;;5073412;28;20400;-64
2020/12/03 12:58:29;;;;;;;10.98;6.57;;;3.30;77.10;;;;;;5074498;28;20485;-64
2020/12/03 13:00:54;;;;;;;12.50;6.15;;;3.30;77.20;;;;;;5073422;28;20039;-65
2020/12/03 13:03:20;;;;;;;12.10;6.70;;;3.20;77.00;;;;;;5073451;28;20037;-64
2020/12/03 13:05:45;;;;;;;12.82;7.20;;;3.20;77.00;;;;;;5074766;28;20024;-64
2020/12/03 13:08:11;;;;;;;11.60;7.07;;;3.20;77.10;;;;;;5073584;28;20025;-64